sensor_id;sensor_type;location;lat;lon;timestamp;temperature;humidity
5278;DHT22;2662;51.194;6.614;2022-10-04T00:01:50;12.30;99.90
5278;DHT22;2662;51.194;6.614;2022-10-04T00:04:24;12.30;99.90
5278;DHT22;2662;51.194;6.614;2022-10-04T00:06:57;12.30;99.90
5278;DHT22;2662;51.194;6.614;2022-10-04T00:09:29;12.30;99.90
5278;DHT22;2662;51.194;6.614;2022-10-04T00:11:59;12.30;99.90
5278;DHT22;2662;51.194;6.614;2022-10-04T00:14:29;12.30;99.90
5278;DHT22;2662;51.194;6.614;2022-10-04T00:16:57;12.30;99.90
5278;DHT22;2662;51.194;6.614;2022-10-04T00:19:37;12.30;99.90
5278;DHT22;2662;51.194;6.614;2022-10-04T00:22:21;12.30;99.90
5278;DHT22;2662;51.194;6.614;2022-10-04T00:25:19;12.20;99.90
5278;DHT22;2662;51.194;6.614;2022-10-04T00:28:15;12.20;99.90
5278;DHT22;2662;51.194;6.614;2022-10-04T00:30:42;12.30;99.90
5278;DHT22;2662;51.194;6.614;2022-10-04T00:33:09;12.20;99.90
5278;DHT22;2662;51.194;6.614;2022-10-04T00:35:47;12.20;99.90
5278;DHT22;2662;51.194;6.614;2022-10-04T00:38:16;12.20;99.90
5278;DHT22;2662;51.194;6.614;2022-10-04T00:40:54;12.20;99.90
5278;DHT22;2662;51.194;6.614;2022-10-04T00:43:27;12.20;99.90
5278;DHT22;2662;51.194;6.614;2022-10-04T00:45:58;12.20;99.90
5278;DHT22;2662;51.194;6.614;2022-10-04T00:48:34;12.20;99.90
5278;DHT22;2662;51.194;6.614;2022-10-04T00:54:02;12.10;99.90
5278;DHT22;2662;51.194;6.614;2022-10-04T00:56:35;12.10;99.90
5278;DHT22;2662;51.194;6.614;2022-10-04T00:59:28;12.00;99.90
5278;DHT22;2662;51.194;6.614;2022-10-04T01:02:01;12.00;99.90
5278;DHT22;2662;51.194;6.614;2022-10-04T01:04:40;12.00;99.90
5278;DHT22;2662;51.194;6.614;2022-10-04T01:07:08;12.00;99.90
5278;DHT22;2662;51.194;6.614;2022-10-04T01:09:44;12.00;99.90
5278;DHT22;2662;51.194;6.614;2022-10-04T01:12:18;12.00;99.90
5278;DHT22;2662;51.194;6.614;2022-10-04T01:14:55;12.00;99.90
5278;DHT22;2662;51.194;6.614;2022-10-04T01:17:25;12.00;99.90
5278;DHT22;2662;51.194;6.614;2022-10-04T01:19:52;12.00;99.90
5278;DHT22;2662;51.194;6.614;2022-10-04T01:22:32;12.10;99.90
5278;DHT22;2662;51.194;6.614;2022-10-04T01:25:01;12.20;99.90
5278;DHT22;2662;51.194;6.614;2022-10-04T01:27:31;12.20;99.90
5278;DHT22;2662;51.194;6.614;2022-10-04T01:29:58;12.20;99.90
5278;DHT22;2662;51.194;6.614;2022-10-04T01:32:26;12.20;99.90
5278;DHT22;2662;51.194;6.614;2022-10-04T01:34:54;12.20;99.90
5278;DHT22;2662;51.194;6.614;2022-10-04T01:37:22;12.30;99.90
5278;DHT22;2662;51.194;6.614;2022-10-04T01:39:50;12.20;99.90
5278;DHT22;2662;51.194;6.614;2022-10-04T01:42:19;12.30;99.90
5278;DHT22;2662;51.194;6.614;2022-10-04T01:44:52;12.20;99.90
5278;DHT22;2662;51.194;6.614;2022-10-04T01:47:24;12.30;99.90
5278;DHT22;2662;51.194;6.614;2022-10-04T01:49:53;12.30;99.90
5278;DHT22;2662;51.194;6.614;2022-10-04T01:52:25;12.30;99.90
5278;DHT22;2662;51.194;6.614;2022-10-04T01:55:02;12.20;99.90
5278;DHT22;2662;51.194;6.614;2022-10-04T01:57:33;12.30;99.90
5278;DHT22;2662;51.194;6.614;2022-10-04T02:00:04;12.20;99.90
5278;DHT22;2662;51.194;6.614;2022-10-04T02:02:35;12.10;99.90
5278;DHT22;2662;51.194;6.614;2022-10-04T02:05:07;12.10;99.90
5278;DHT22;2662;51.194;6.614;2022-10-04T02:07:36;12.00;99.90
5278;DHT22;2662;51.194;6.614;2022-10-04T02:10:09;11.90;99.90
5278;DHT22;2662;51.194;6.614;2022-10-04T02:12:42;11.90;99.90
5278;DHT22;2662;51.194;6.614;2022-10-04T02:15:11;11.90;99.90
5278;DHT22;2662;51.194;6.614;2022-10-04T02:17:40;11.90;99.90
5278;DHT22;2662;51.194;6.614;2022-10-04T02:20:12;11.90;99.90
5278;DHT22;2662;51.194;6.614;2022-10-04T02:22:39;11.90;99.90
5278;DHT22;2662;51.194;6.614;2022-10-04T02:25:09;11.80;99.90
5278;DHT22;2662;51.194;6.614;2022-10-04T02:27:37;11.80;99.90
5278;DHT22;2662;51.194;6.614;2022-10-04T02:30:06;11.80;99.90
5278;DHT22;2662;51.194;6.614;2022-10-04T02:32:33;11.80;99.90
5278;DHT22;2662;51.194;6.614;2022-10-04T02:35:18;11.80;99.90
5278;DHT22;2662;51.194;6.614;2022-10-04T02:37:47;11.80;99.90
5278;DHT22;2662;51.194;6.614;2022-10-04T02:40:18;11.90;99.90
5278;DHT22;2662;51.194;6.614;2022-10-04T02:42:50;11.90;99.90
5278;DHT22;2662;51.194;6.614;2022-10-04T02:45:25;11.90;99.90
5278;DHT22;2662;51.194;6.614;2022-10-04T02:47:58;11.90;99.90
5278;DHT22;2662;51.194;6.614;2022-10-04T02:50:29;11.80;99.90
5278;DHT22;2662;51.194;6.614;2022-10-04T02:52:59;11.80;99.90
5278;DHT22;2662;51.194;6.614;2022-10-04T02:55:30;11.70;99.90
5278;DHT22;2662;51.194;6.614;2022-10-04T02:57:58;11.70;99.90
5278;DHT22;2662;51.194;6.614;2022-10-04T03:00:26;11.70;99.90
5278;DHT22;2662;51.194;6.614;2022-10-04T03:03:16;11.70;99.90
5278;DHT22;2662;51.194;6.614;2022-10-04T03:05:44;11.70;99.90
5278;DHT22;2662;51.194;6.614;2022-10-04T03:08:13;11.70;99.90
5278;DHT22;2662;51.194;6.614;2022-10-04T03:10:42;11.80;99.90
5278;DHT22;2662;51.194;6.614;2022-10-04T03:13:10;11.80;99.90
5278;DHT22;2662;51.194;6.614;2022-10-04T03:15:38;11.80;99.90
5278;DHT22;2662;51.194;6.614;2022-10-04T03:18:05;11.80;99.90
5278;DHT22;2662;51.194;6.614;2022-10-04T03:20:35;11.70;99.90
5278;DHT22;2662;51.194;6.614;2022-10-04T03:23:03;11.70;99.90
5278;DHT22;2662;51.194;6.614;2022-10-04T03:25:40;11.60;99.90
5278;DHT22;2662;51.194;6.614;2022-10-04T03:28:09;11.60;99.90
5278;DHT22;2662;51.194;6.614;2022-10-04T03:30:36;11.50;99.90
5278;DHT22;2662;51.194;6.614;2022-10-04T03:33:04;11.50;99.90
5278;DHT22;2662;51.194;6.614;2022-10-04T03:35:33;11.50;99.90
5278;DHT22;2662;51.194;6.614;2022-10-04T03:38:04;11.40;99.90
5278;DHT22;2662;51.194;6.614;2022-10-04T03:40:32;11.40;99.90
5278;DHT22;2662;51.194;6.614;2022-10-04T03:43:02;11.30;99.90
5278;DHT22;2662;51.194;6.614;2022-10-04T03:45:32;11.30;99.90
5278;DHT22;2662;51.194;6.614;2022-10-04T03:48:03;11.20;99.90
5278;DHT22;2662;51.194;6.614;2022-10-04T03:50:34;11.20;99.90
5278;DHT22;2662;51.194;6.614;2022-10-04T03:53:08;11.20;99.90
5278;DHT22;2662;51.194;6.614;2022-10-04T03:55:39;11.20;99.90
5278;DHT22;2662;51.194;6.614;2022-10-04T03:58:08;11.20;99.90
5278;DHT22;2662;51.194;6.614;2022-10-04T04:00:41;11.20;99.90
5278;DHT22;2662;51.194;6.614;2022-10-04T04:03:15;11.10;99.90
5278;DHT22;2662;51.194;6.614;2022-10-04T04:05:46;11.10;99.90
5278;DHT22;2662;51.194;6.614;2022-10-04T04:08:22;11.10;99.90
5278;DHT22;2662;51.194;6.614;2022-10-04T04:10:54;11.00;99.90
5278;DHT22;2662;51.194;6.614;2022-10-04T04:13:24;11.00;99.90
5278;DHT22;2662;51.194;6.614;2022-10-04T04:15:55;11.00;99.90
5278;DHT22;2662;51.194;6.614;2022-10-04T04:18:24;11.00;99.90
5278;DHT22;2662;51.194;6.614;2022-10-04T04:20:53;11.00;99.90
5278;DHT22;2662;51.194;6.614;2022-10-04T04:23:27;11.10;99.90
5278;DHT22;2662;51.194;6.614;2022-10-04T04:25:59;11.10;99.90
5278;DHT22;2662;51.194;6.614;2022-10-04T04:28:40;11.10;99.90
5278;DHT22;2662;51.194;6.614;2022-10-04T04:31:17;11.20;99.90
5278;DHT22;2662;51.194;6.614;2022-10-04T04:33:50;11.20;99.90
5278;DHT22;2662;51.194;6.614;2022-10-04T04:36:20;11.20;99.90
5278;DHT22;2662;51.194;6.614;2022-10-04T04:38:47;11.20;99.90
5278;DHT22;2662;51.194;6.614;2022-10-04T04:41:32;11.20;99.90
5278;DHT22;2662;51.194;6.614;2022-10-04T04:44:00;11.20;99.90
5278;DHT22;2662;51.194;6.614;2022-10-04T04:46:28;11.10;99.90
5278;DHT22;2662;51.194;6.614;2022-10-04T04:48:58;11.10;99.90
5278;DHT22;2662;51.194;6.614;2022-10-04T04:51:28;11.10;99.90
5278;DHT22;2662;51.194;6.614;2022-10-04T04:53:56;11.00;99.90
5278;DHT22;2662;51.194;6.614;2022-10-04T04:56:25;11.00;99.90
5278;DHT22;2662;51.194;6.614;2022-10-04T04:58:55;11.00;99.90
5278;DHT22;2662;51.194;6.614;2022-10-04T05:01:26;10.90;99.90
5278;DHT22;2662;51.194;6.614;2022-10-04T05:04:02;10.90;99.90
5278;DHT22;2662;51.194;6.614;2022-10-04T05:06:30;10.80;99.90
5278;DHT22;2662;51.194;6.614;2022-10-04T05:08:58;10.80;99.90
5278;DHT22;2662;51.194;6.614;2022-10-04T05:11:28;10.80;99.90
5278;DHT22;2662;51.194;6.614;2022-10-04T05:13:58;10.70;99.90
5278;DHT22;2662;51.194;6.614;2022-10-04T05:16:31;10.70;99.90
5278;DHT22;2662;51.194;6.614;2022-10-04T05:19:06;10.70;99.90
5278;DHT22;2662;51.194;6.614;2022-10-04T05:21:34;10.60;99.90
5278;DHT22;2662;51.194;6.614;2022-10-04T05:24:09;10.60;99.90
5278;DHT22;2662;51.194;6.614;2022-10-04T05:26:37;10.60;99.90
5278;DHT22;2662;51.194;6.614;2022-10-04T05:29:09;10.60;99.90
5278;DHT22;2662;51.194;6.614;2022-10-04T05:31:43;10.60;99.90
5278;DHT22;2662;51.194;6.614;2022-10-04T05:34:22;10.60;99.90
5278;DHT22;2662;51.194;6.614;2022-10-04T05:37:05;10.60;99.90
5278;DHT22;2662;51.194;6.614;2022-10-04T05:39:41;10.50;99.90
5278;DHT22;2662;51.194;6.614;2022-10-04T05:42:15;10.50;99.90
5278;DHT22;2662;51.194;6.614;2022-10-04T05:44:48;10.50;99.90
5278;DHT22;2662;51.194;6.614;2022-10-04T05:47:17;10.50;99.90
5278;DHT22;2662;51.194;6.614;2022-10-04T05:49:51;10.50;99.90
5278;DHT22;2662;51.194;6.614;2022-10-04T05:52:27;10.50;99.90
5278;DHT22;2662;51.194;6.614;2022-10-04T05:58:10;10.60;99.90
5278;DHT22;2662;51.194;6.614;2022-10-04T06:00:54;10.60;99.90
5278;DHT22;2662;51.194;6.614;2022-10-04T06:03:33;10.70;99.90
5278;DHT22;2662;51.194;6.614;2022-10-04T06:06:13;10.70;99.90
5278;DHT22;2662;51.194;6.614;2022-10-04T06:08:49;10.80;99.90
5278;DHT22;2662;51.194;6.614;2022-10-04T06:11:25;10.80;99.90
5278;DHT22;2662;51.194;6.614;2022-10-04T06:14:20;10.90;99.90
5278;DHT22;2662;51.194;6.614;2022-10-04T06:17:13;11.10;99.90
5278;DHT22;2662;51.194;6.614;2022-10-04T06:22:45;11.40;99.90
5278;DHT22;2662;51.194;6.614;2022-10-04T06:25:18;11.90;99.90
5278;DHT22;2662;51.194;6.614;2022-10-04T06:27:51;12.10;99.90
5278;DHT22;2662;51.194;6.614;2022-10-04T06:30:22;12.30;99.90
5278;DHT22;2662;51.194;6.614;2022-10-04T06:33:07;12.50;99.90
5278;DHT22;2662;51.194;6.614;2022-10-04T06:36:13;12.80;99.90
5278;DHT22;2662;51.194;6.614;2022-10-04T06:39:02;13.20;99.90
5278;DHT22;2662;51.194;6.614;2022-10-04T06:44:36;13.30;99.90
5278;DHT22;2662;51.194;6.614;2022-10-04T06:47:15;13.40;99.90
5278;DHT22;2662;51.194;6.614;2022-10-04T06:49:46;13.40;99.90
5278;DHT22;2662;51.194;6.614;2022-10-04T06:52:38;13.30;99.90
5278;DHT22;2662;51.194;6.614;2022-10-04T06:55:39;13.40;99.90
5278;DHT22;2662;51.194;6.614;2022-10-04T07:01:26;13.30;99.90
5278;DHT22;2662;51.194;6.614;2022-10-04T07:03:59;13.40;99.90
5278;DHT22;2662;51.194;6.614;2022-10-04T07:06:30;13.30;99.90
5278;DHT22;2662;51.194;6.614;2022-10-04T07:09:01;13.30;99.90
5278;DHT22;2662;51.194;6.614;2022-10-04T07:11:36;13.30;99.90
5278;DHT22;2662;51.194;6.614;2022-10-04T07:14:12;13.40;99.90
5278;DHT22;2662;51.194;6.614;2022-10-04T07:16:45;13.50;99.90
5278;DHT22;2662;51.194;6.614;2022-10-04T07:19:27;13.50;99.90
5278;DHT22;2662;51.194;6.614;2022-10-04T07:21:59;13.50;99.90
5278;DHT22;2662;51.194;6.614;2022-10-04T07:24:38;13.50;99.90
5278;DHT22;2662;51.194;6.614;2022-10-04T07:27:13;13.60;99.90
5278;DHT22;2662;51.194;6.614;2022-10-04T07:29:42;13.60;99.90
5278;DHT22;2662;51.194;6.614;2022-10-04T07:32:12;13.80;99.90
5278;DHT22;2662;51.194;6.614;2022-10-04T07:34:44;13.80;99.90
5278;DHT22;2662;51.194;6.614;2022-10-04T07:37:13;13.90;99.90
5278;DHT22;2662;51.194;6.614;2022-10-04T07:39:44;14.00;99.90
5278;DHT22;2662;51.194;6.614;2022-10-04T07:42:21;14.10;99.90
5278;DHT22;2662;51.194;6.614;2022-10-04T07:45:02;14.20;99.90
5278;DHT22;2662;51.194;6.614;2022-10-04T07:47:30;14.30;99.90
5278;DHT22;2662;51.194;6.614;2022-10-04T07:49:57;14.20;99.90
5278;DHT22;2662;51.194;6.614;2022-10-04T07:52:43;14.40;99.90
5278;DHT22;2662;51.194;6.614;2022-10-04T07:55:22;14.60;99.90
5278;DHT22;2662;51.194;6.614;2022-10-04T07:57:57;15.00;99.90
5278;DHT22;2662;51.194;6.614;2022-10-04T08:00:42;15.90;99.90
5278;DHT22;2662;51.194;6.614;2022-10-04T08:03:26;17.10;99.90
5278;DHT22;2662;51.194;6.614;2022-10-04T08:06:06;18.00;99.90
5278;DHT22;2662;51.194;6.614;2022-10-04T08:08:50;18.60;99.90
5278;DHT22;2662;51.194;6.614;2022-10-04T08:11:27;18.50;99.90
5278;DHT22;2662;51.194;6.614;2022-10-04T08:14:05;18.80;99.90
5278;DHT22;2662;51.194;6.614;2022-10-04T08:16:35;19.60;99.90
5278;DHT22;2662;51.194;6.614;2022-10-04T08:19:29;20.40;99.90
5278;DHT22;2662;51.194;6.614;2022-10-04T08:22:04;20.90;99.90
5278;DHT22;2662;51.194;6.614;2022-10-04T08:24:37;20.50;99.90
5278;DHT22;2662;51.194;6.614;2022-10-04T08:27:20;20.20;99.90
5278;DHT22;2662;51.194;6.614;2022-10-04T08:30:03;20.20;99.90
5278;DHT22;2662;51.194;6.614;2022-10-04T08:32:52;19.40;99.90
5278;DHT22;2662;51.194;6.614;2022-10-04T08:35:28;19.20;99.90
5278;DHT22;2662;51.194;6.614;2022-10-04T08:38:21;19.90;99.90
5278;DHT22;2662;51.194;6.614;2022-10-04T08:44:38;20.30;99.90
5278;DHT22;2662;51.194;6.614;2022-10-04T08:54:10;19.80;99.90
5278;DHT22;2662;51.194;6.614;2022-10-04T08:56:50;20.50;99.90
5278;DHT22;2662;51.194;6.614;2022-10-04T08:59:53;20.30;99.90
5278;DHT22;2662;51.194;6.614;2022-10-04T09:02:55;20.80;99.90
5278;DHT22;2662;51.194;6.614;2022-10-04T09:05:52;21.40;99.90
5278;DHT22;2662;51.194;6.614;2022-10-04T09:08:43;22.20;99.90
5278;DHT22;2662;51.194;6.614;2022-10-04T09:11:31;22.40;99.90
5278;DHT22;2662;51.194;6.614;2022-10-04T09:14:13;22.90;99.90
5278;DHT22;2662;51.194;6.614;2022-10-04T09:16:51;23.40;99.90
5278;DHT22;2662;51.194;6.614;2022-10-04T09:19:25;23.90;99.90
5278;DHT22;2662;51.194;6.614;2022-10-04T09:22:15;24.40;99.90
5278;DHT22;2662;51.194;6.614;2022-10-04T09:25:02;24.40;99.90
5278;DHT22;2662;51.194;6.614;2022-10-04T09:27:51;24.50;99.90
5278;DHT22;2662;51.194;6.614;2022-10-04T09:30:19;24.80;99.90
5278;DHT22;2662;51.194;6.614;2022-10-04T09:33:06;24.90;99.90
5278;DHT22;2662;51.194;6.614;2022-10-04T09:35:50;25.00;99.90
5278;DHT22;2662;51.194;6.614;2022-10-04T09:38:47;25.00;99.90
5278;DHT22;2662;51.194;6.614;2022-10-04T09:44:58;25.30;99.90
5278;DHT22;2662;51.194;6.614;2022-10-04T09:47:43;24.80;99.90
5278;DHT22;2662;51.194;6.614;2022-10-04T09:50:40;24.20;99.90
5278;DHT22;2662;51.194;6.614;2022-10-04T09:59:18;23.40;99.90
5278;DHT22;2662;51.194;6.614;2022-10-04T10:02:16;23.10;99.90
5278;DHT22;2662;51.194;6.614;2022-10-04T10:05:02;23.30;99.90
5278;DHT22;2662;51.194;6.614;2022-10-04T10:07:37;23.50;99.90
5278;DHT22;2662;51.194;6.614;2022-10-04T10:10:16;23.60;99.90
5278;DHT22;2662;51.194;6.614;2022-10-04T10:13:23;24.00;99.90
5278;DHT22;2662;51.194;6.614;2022-10-04T10:16:40;24.60;99.90
5278;DHT22;2662;51.194;6.614;2022-10-04T10:22:42;24.20;99.90
5278;DHT22;2662;51.194;6.614;2022-10-04T10:25:19;23.70;99.90
5278;DHT22;2662;51.194;6.614;2022-10-04T10:28:03;23.10;99.90
5278;DHT22;2662;51.194;6.614;2022-10-04T10:30:44;22.50;99.90
5278;DHT22;2662;51.194;6.614;2022-10-04T10:33:31;21.90;99.90
5278;DHT22;2662;51.194;6.614;2022-10-04T10:36:26;21.50;99.90
5278;DHT22;2662;51.194;6.614;2022-10-04T10:39:16;21.00;99.90
5278;DHT22;2662;51.194;6.614;2022-10-04T10:42:10;20.40;99.90
5278;DHT22;2662;51.194;6.614;2022-10-04T10:45:05;20.00;99.90
5278;DHT22;2662;51.194;6.614;2022-10-04T10:47:42;19.80;99.90
5278;DHT22;2662;51.194;6.614;2022-10-04T10:50:23;19.60;99.90
5278;DHT22;2662;51.194;6.614;2022-10-04T10:53:15;19.50;99.90
5278;DHT22;2662;51.194;6.614;2022-10-04T10:56:07;19.40;99.90
5278;DHT22;2662;51.194;6.614;2022-10-04T10:59:10;19.40;99.90
5278;DHT22;2662;51.194;6.614;2022-10-04T11:01:58;19.40;99.90
5278;DHT22;2662;51.194;6.614;2022-10-04T11:04:50;19.50;99.90
5278;DHT22;2662;51.194;6.614;2022-10-04T11:07:42;19.40;99.90
5278;DHT22;2662;51.194;6.614;2022-10-04T11:10:35;19.40;99.90
5278;DHT22;2662;51.194;6.614;2022-10-04T11:16:34;19.60;99.90
5278;DHT22;2662;51.194;6.614;2022-10-04T11:19:25;19.80;99.90
5278;DHT22;2662;51.194;6.614;2022-10-04T11:22:39;19.80;99.90
5278;DHT22;2662;51.194;6.614;2022-10-04T11:28:14;19.80;99.90
5278;DHT22;2662;51.194;6.614;2022-10-04T11:31:22;19.80;99.90
5278;DHT22;2662;51.194;6.614;2022-10-04T11:37:06;19.70;99.90
5278;DHT22;2662;51.194;6.614;2022-10-04T11:39:53;19.70;99.90
5278;DHT22;2662;51.194;6.614;2022-10-04T11:42:38;19.70;99.90
5278;DHT22;2662;51.194;6.614;2022-10-04T11:45:51;19.80;99.90
5278;DHT22;2662;51.194;6.614;2022-10-04T11:48:27;20.00;99.90
5278;DHT22;2662;51.194;6.614;2022-10-04T11:51:31;20.10;99.90
5278;DHT22;2662;51.194;6.614;2022-10-04T11:57:28;20.10;99.90
5278;DHT22;2662;51.194;6.614;2022-10-04T12:00:03;20.30;99.90
5278;DHT22;2662;51.194;6.614;2022-10-04T12:02:55;20.40;99.90
5278;DHT22;2662;51.194;6.614;2022-10-04T12:05:39;20.50;99.90
5278;DHT22;2662;51.194;6.614;2022-10-04T12:08:22;20.60;99.90
5278;DHT22;2662;51.194;6.614;2022-10-04T12:11:22;20.50;99.90
5278;DHT22;2662;51.194;6.614;2022-10-04T12:13:57;20.70;99.90
5278;DHT22;2662;51.194;6.614;2022-10-04T12:16:49;20.80;99.90
5278;DHT22;2662;51.194;6.614;2022-10-04T12:19:37;20.90;99.90
5278;DHT22;2662;51.194;6.614;2022-10-04T12:22:22;20.80;99.90
5278;DHT22;2662;51.194;6.614;2022-10-04T12:25:25;20.80;99.90
5278;DHT22;2662;51.194;6.614;2022-10-04T12:28:23;20.70;99.90
5278;DHT22;2662;51.194;6.614;2022-10-04T12:31:14;20.60;99.90
5278;DHT22;2662;51.194;6.614;2022-10-04T12:33:50;20.60;99.90
5278;DHT22;2662;51.194;6.614;2022-10-04T12:36:38;20.70;99.90
5278;DHT22;2662;51.194;6.614;2022-10-04T12:39:29;20.80;99.90
5278;DHT22;2662;51.194;6.614;2022-10-04T12:42:09;20.80;99.90
5278;DHT22;2662;51.194;6.614;2022-10-04T12:44:50;20.80;99.90
5278;DHT22;2662;51.194;6.614;2022-10-04T12:47:42;20.80;99.90
5278;DHT22;2662;51.194;6.614;2022-10-04T12:50:20;20.80;99.90
5278;DHT22;2662;51.194;6.614;2022-10-04T12:52:53;20.90;99.90
5278;DHT22;2662;51.194;6.614;2022-10-04T12:55:44;21.00;99.90
5278;DHT22;2662;51.194;6.614;2022-10-04T12:58:20;21.20;99.90
5278;DHT22;2662;51.194;6.614;2022-10-04T13:00:51;21.40;99.90
5278;DHT22;2662;51.194;6.614;2022-10-04T13:03:28;21.50;99.90
5278;DHT22;2662;51.194;6.614;2022-10-04T13:06:03;21.50;99.90
5278;DHT22;2662;51.194;6.614;2022-10-04T13:08:46;21.40;99.90
5278;DHT22;2662;51.194;6.614;2022-10-04T13:11:28;21.40;99.90
5278;DHT22;2662;51.194;6.614;2022-10-04T13:17:17;21.60;99.90
5278;DHT22;2662;51.194;6.614;2022-10-04T13:19:54;21.70;99.90
5278;DHT22;2662;51.194;6.614;2022-10-04T13:22:35;21.70;99.90
5278;DHT22;2662;51.194;6.614;2022-10-04T13:25:17;21.80;99.90
5278;DHT22;2662;51.194;6.614;2022-10-04T13:27:48;21.80;99.90
5278;DHT22;2662;51.194;6.614;2022-10-04T13:30:23;21.80;99.90
5278;DHT22;2662;51.194;6.614;2022-10-04T13:33:00;21.90;99.90
5278;DHT22;2662;51.194;6.614;2022-10-04T13:35:34;21.90;99.90
5278;DHT22;2662;51.194;6.614;2022-10-04T13:38:19;21.90;99.90
5278;DHT22;2662;51.194;6.614;2022-10-04T13:41:06;21.90;99.90
5278;DHT22;2662;51.194;6.614;2022-10-04T13:43:59;21.80;99.90
5278;DHT22;2662;51.194;6.614;2022-10-04T13:46:37;21.70;99.90
5278;DHT22;2662;51.194;6.614;2022-10-04T13:49:22;21.70;99.90
5278;DHT22;2662;51.194;6.614;2022-10-04T13:52:08;21.70;99.90
5278;DHT22;2662;51.194;6.614;2022-10-04T13:55:05;21.60;99.90
5278;DHT22;2662;51.194;6.614;2022-10-04T13:58:01;21.50;99.90
5278;DHT22;2662;51.194;6.614;2022-10-04T14:00:48;21.50;99.90
5278;DHT22;2662;51.194;6.614;2022-10-04T14:03:38;21.60;99.90
5278;DHT22;2662;51.194;6.614;2022-10-04T14:06:37;21.70;99.90
5278;DHT22;2662;51.194;6.614;2022-10-04T14:09:34;21.80;99.90
5278;DHT22;2662;51.194;6.614;2022-10-04T14:12:24;21.80;99.90
5278;DHT22;2662;51.194;6.614;2022-10-04T14:15:19;21.80;99.90
5278;DHT22;2662;51.194;6.614;2022-10-04T14:21:49;21.80;99.90
5278;DHT22;2662;51.194;6.614;2022-10-04T14:24:47;21.80;99.90
5278;DHT22;2662;51.194;6.614;2022-10-04T14:27:48;21.90;99.90
5278;DHT22;2662;51.194;6.614;2022-10-04T14:30:19;21.90;99.90
5278;DHT22;2662;51.194;6.614;2022-10-04T14:36:01;21.90;99.90
5278;DHT22;2662;51.194;6.614;2022-10-04T14:38:47;21.90;99.90
5278;DHT22;2662;51.194;6.614;2022-10-04T14:44:38;21.90;99.90
5278;DHT22;2662;51.194;6.614;2022-10-04T14:47:19;21.90;99.90
5278;DHT22;2662;51.194;6.614;2022-10-04T14:50:00;21.90;99.90
5278;DHT22;2662;51.194;6.614;2022-10-04T14:52:48;21.90;99.90
5278;DHT22;2662;51.194;6.614;2022-10-04T14:55:44;21.90;99.90
5278;DHT22;2662;51.194;6.614;2022-10-04T14:58:21;21.80;99.90
5278;DHT22;2662;51.194;6.614;2022-10-04T15:01:04;21.80;99.90
5278;DHT22;2662;51.194;6.614;2022-10-04T15:03:37;21.80;99.90
5278;DHT22;2662;51.194;6.614;2022-10-04T15:06:21;21.90;99.90
5278;DHT22;2662;51.194;6.614;2022-10-04T15:09:04;22.00;99.90
5278;DHT22;2662;51.194;6.614;2022-10-04T15:11:43;22.00;99.90
5278;DHT22;2662;51.194;6.614;2022-10-04T15:14:32;22.00;99.90
5278;DHT22;2662;51.194;6.614;2022-10-04T15:17:04;21.90;99.90
5278;DHT22;2662;51.194;6.614;2022-10-04T15:19:42;21.90;99.90
5278;DHT22;2662;51.194;6.614;2022-10-04T15:22:14;21.90;99.90
5278;DHT22;2662;51.194;6.614;2022-10-04T15:24:47;21.90;99.90
5278;DHT22;2662;51.194;6.614;2022-10-04T15:27:49;21.80;99.90
5278;DHT22;2662;51.194;6.614;2022-10-04T15:30:25;21.70;99.90
5278;DHT22;2662;51.194;6.614;2022-10-04T15:33:16;21.70;99.90
5278;DHT22;2662;51.194;6.614;2022-10-04T15:36:02;21.60;99.90
5278;DHT22;2662;51.194;6.614;2022-10-04T15:38:42;21.60;99.90
5278;DHT22;2662;51.194;6.614;2022-10-04T15:41:15;21.50;99.90
5278;DHT22;2662;51.194;6.614;2022-10-04T15:44:11;21.40;99.90
5278;DHT22;2662;51.194;6.614;2022-10-04T15:46:44;21.30;99.90
5278;DHT22;2662;51.194;6.614;2022-10-04T15:49:31;21.30;99.90
5278;DHT22;2662;51.194;6.614;2022-10-04T15:52:10;21.30;99.90
5278;DHT22;2662;51.194;6.614;2022-10-04T15:54:46;21.20;99.90
5278;DHT22;2662;51.194;6.614;2022-10-04T15:57:33;21.20;99.90
5278;DHT22;2662;51.194;6.614;2022-10-04T16:00:06;21.10;99.90
5278;DHT22;2662;51.194;6.614;2022-10-04T16:02:50;21.10;99.90
5278;DHT22;2662;51.194;6.614;2022-10-04T16:05:24;21.00;99.90
5278;DHT22;2662;51.194;6.614;2022-10-04T16:10:58;20.90;99.90
5278;DHT22;2662;51.194;6.614;2022-10-04T16:13:40;20.80;99.90
5278;DHT22;2662;51.194;6.614;2022-10-04T16:17:05;20.70;99.90
5278;DHT22;2662;51.194;6.614;2022-10-04T16:20:11;20.70;99.90
5278;DHT22;2662;51.194;6.614;2022-10-04T16:25:48;20.40;99.90
5278;DHT22;2662;51.194;6.614;2022-10-04T16:28:21;20.30;99.90
5278;DHT22;2662;51.194;6.614;2022-10-04T16:31:20;20.20;99.90
5278;DHT22;2662;51.194;6.614;2022-10-04T16:33:57;20.00;99.90
5278;DHT22;2662;51.194;6.614;2022-10-04T16:36:40;19.90;99.90
5278;DHT22;2662;51.194;6.614;2022-10-04T16:39:09;19.80;99.90
5278;DHT22;2662;51.194;6.614;2022-10-04T16:41:57;19.60;99.90
5278;DHT22;2662;51.194;6.614;2022-10-04T16:44:33;19.40;99.90
5278;DHT22;2662;51.194;6.614;2022-10-04T16:47:15;19.30;99.90
5278;DHT22;2662;51.194;6.614;2022-10-04T16:49:51;19.10;99.90
5278;DHT22;2662;51.194;6.614;2022-10-04T16:52:37;19.00;99.90
5278;DHT22;2662;51.194;6.614;2022-10-04T16:58:34;18.70;99.90
5278;DHT22;2662;51.194;6.614;2022-10-04T17:01:47;18.50;99.90
5278;DHT22;2662;51.194;6.614;2022-10-04T17:04:30;18.30;99.90
5278;DHT22;2662;51.194;6.614;2022-10-04T17:07:05;18.20;99.90
5278;DHT22;2662;51.194;6.614;2022-10-04T17:09:46;18.00;99.90
5278;DHT22;2662;51.194;6.614;2022-10-04T17:12:17;17.90;99.90
5278;DHT22;2662;51.194;6.614;2022-10-04T17:14:56;17.80;99.90
5278;DHT22;2662;51.194;6.614;2022-10-04T17:17:31;17.60;99.90
5278;DHT22;2662;51.194;6.614;2022-10-04T17:20:03;17.50;99.90
5278;DHT22;2662;51.194;6.614;2022-10-04T17:22:44;17.40;99.90
5278;DHT22;2662;51.194;6.614;2022-10-04T17:25:24;17.30;99.90
5278;DHT22;2662;51.194;6.614;2022-10-04T17:27:56;17.10;99.90
5278;DHT22;2662;51.194;6.614;2022-10-04T17:30:26;17.00;99.90
5278;DHT22;2662;51.194;6.614;2022-10-04T17:33:17;16.90;99.90
5278;DHT22;2662;51.194;6.614;2022-10-04T17:38:56;16.70;99.90
5278;DHT22;2662;51.194;6.614;2022-10-04T17:41:35;16.60;99.90
5278;DHT22;2662;51.194;6.614;2022-10-04T17:44:25;16.50;99.90
5278;DHT22;2662;51.194;6.614;2022-10-04T17:47:02;16.40;99.90
5278;DHT22;2662;51.194;6.614;2022-10-04T17:49:39;16.40;99.90
5278;DHT22;2662;51.194;6.614;2022-10-04T17:52:27;16.30;99.90
5278;DHT22;2662;51.194;6.614;2022-10-04T17:55:17;16.30;99.90
5278;DHT22;2662;51.194;6.614;2022-10-04T17:57:48;16.20;99.90
5278;DHT22;2662;51.194;6.614;2022-10-04T18:00:18;16.20;99.90
5278;DHT22;2662;51.194;6.614;2022-10-04T18:03:02;16.20;99.90
5278;DHT22;2662;51.194;6.614;2022-10-04T18:05:41;16.10;99.90
5278;DHT22;2662;51.194;6.614;2022-10-04T18:08:14;16.10;99.90
5278;DHT22;2662;51.194;6.614;2022-10-04T18:10:48;16.10;99.90
5278;DHT22;2662;51.194;6.614;2022-10-04T18:13:21;16.00;99.90
5278;DHT22;2662;51.194;6.614;2022-10-04T18:15:53;16.00;99.90
5278;DHT22;2662;51.194;6.614;2022-10-04T18:18:26;16.00;99.90
5278;DHT22;2662;51.194;6.614;2022-10-04T18:21:03;16.00;99.90
5278;DHT22;2662;51.194;6.614;2022-10-04T18:23:33;16.00;99.90
5278;DHT22;2662;51.194;6.614;2022-10-04T18:26:08;16.00;99.90
5278;DHT22;2662;51.194;6.614;2022-10-04T18:28:36;15.90;99.90
5278;DHT22;2662;51.194;6.614;2022-10-04T18:31:31;15.90;99.90
5278;DHT22;2662;51.194;6.614;2022-10-04T18:34:15;15.90;99.90
5278;DHT22;2662;51.194;6.614;2022-10-04T18:36:51;15.80;99.90